Linn Creek, Missouri
Current Conditions -  °F | °C
As of 12:15 PM on Thursday 23 Oct 2014 (Local Time) from KH21 Reporting Station
Overcast Overcast  
Wind Chill: 57°   Ceiling: 9500
Heat Index: 57°   Visibility: 10mi
Dew Point: 48°   Wind: 5mph
Humidity: 72%   Direction: 180°S
Pressure: 30.17"   Gusts: NA
Location:  38.04°N, 92.71°W
Report Text: KH21 231715Z AUTO 18004KT 10SM SCT033 SCT041 OVC095 14/09 A3017 RMK AO2
Loading
Personal Weather Stations






























Interactive Weather Map
Tropical Storm Tracking
New forecast layout! Learn more

10-Day Weather Forecast

Advertisements
Track Severe Weather on mobile